createdAt,value
2022-11-06T00:04:04.812Z,100828.54
2022-11-06T00:14:06.306Z,100833.56
2022-11-06T00:24:08.968Z,100842.48
2022-11-06T00:34:10.432Z,100850.61
2022-11-06T00:44:11.794Z,100855.48
2022-11-06T00:54:13.322Z,100860.29
2022-11-06T01:04:19.424Z,100859.94
2022-11-06T01:14:21.999Z,100872.89
2022-11-06T01:24:27.634Z,100882.27
2022-11-06T01:34:29.217Z,100880.98
2022-11-06T01:44:33.584Z,100883.97
2022-11-06T01:54:38.027Z,100895.95
2022-11-06T02:04:45.338Z,100899.84
2022-11-06T02:15:17.838Z,100902.95
2022-11-06T02:25:22.040Z,100903.00
2022-11-06T02:35:35.076Z,100909.35
2022-11-06T02:45:59.266Z,100926.03
2022-11-06T02:56:11.632Z,100927.65
2022-11-06T03:06:23.806Z,100925.91
2022-11-06T03:16:25.007Z,100937.27
2022-11-06T03:26:35.791Z,100950.45
2022-11-06T03:36:52.079Z,100957.20
2022-11-06T03:47:07.125Z,100967.95
2022-11-06T03:57:17.943Z,100971.52
2022-11-06T04:07:28.022Z,100972.83
2022-11-06T04:17:29.607Z,100975.71
2022-11-06T04:27:55.816Z,100973.55
2022-11-06T04:38:30.253Z,100973.24
2022-11-06T04:48:31.846Z,100974.20
2022-11-06T04:58:32.996Z,100983.23
2022-11-06T05:08:34.140Z,100988.50
2022-11-06T05:18:36.089Z,100986.11
2022-11-06T05:28:37.272Z,100992.27
2022-11-06T05:38:38.617Z,101007.68
2022-11-06T05:48:39.944Z,101015.80
2022-11-06T05:58:41.250Z,101029.59
2022-11-06T06:08:42.437Z,101044.20
2022-11-06T06:18:43.677Z,101056.98
2022-11-06T06:28:47.932Z,101069.47
2022-11-06T06:38:49.135Z,101080.27
2022-11-06T06:48:50.515Z,101089.77
2022-11-06T06:58:54.930Z,101095.10
2022-11-06T07:08:56.401Z,101097.24
2022-11-06T07:18:58.296Z,101103.27
2022-11-06T07:28:59.569Z,101106.00
2022-11-06T07:39:00.898Z,101101.23
2022-11-06T07:49:02.513Z,101107.08
2022-11-06T07:59:04.494Z,101103.69
2022-11-06T08:09:07.641Z,101106.69
2022-11-06T08:19:08.989Z,101108.44
2022-11-06T08:29:10.253Z,101113.77
2022-11-06T08:39:14.648Z,101116.85
2022-11-06T08:49:16.079Z,101132.73
2022-11-06T08:59:17.321Z,101133.77
2022-11-06T09:09:18.777Z,101134.48
2022-11-06T09:19:20.305Z,101136.91
2022-11-06T09:29:21.502Z,101145.41
2022-11-06T09:39:22.640Z,101135.38
2022-11-06T09:50:06.247Z,101134.29
2022-11-06T10:00:13.581Z,101120.77
2022-11-06T10:10:18.440Z,101125.58
2022-11-06T10:20:51.102Z,101123.64
2022-11-06T10:30:55.305Z,101128.09
2022-11-06T10:40:56.904Z,101128.06
2022-11-06T10:51:05.030Z,101127.66
2022-11-06T11:01:11.657Z,101120.08
2022-11-06T11:11:12.887Z,101113.98
2022-11-06T11:21:27.167Z,101098.98
2022-11-06T11:31:31.325Z,101092.48
2022-11-06T11:41:32.574Z,101082.13
2022-11-06T11:51:44.218Z,101074.85
2022-11-06T12:01:46.268Z,101071.55
2022-11-06T12:11:47.863Z,101067.39
2022-11-06T12:21:57.789Z,101060.55
2022-11-06T12:32:16.685Z,101051.88
2022-11-06T12:42:24.896Z,101052.03
2022-11-06T12:52:47.751Z,101040.38
2022-11-06T13:02:54.876Z,101042.27
2022-11-06T13:13:21.279Z,101034.57
2022-11-06T13:23:30.469Z,101025.71
2022-11-06T13:33:41.589Z,101022.77
2022-11-06T13:43:48.191Z,101024.20
2022-11-06T13:54:23.381Z,101015.85
2022-11-06T14:04:53.903Z,101012.37
2022-11-06T14:15:16.950Z,101003.65
2022-11-06T14:25:27.365Z,100999.52
2022-11-06T14:35:28.770Z,100998.55
2022-11-06T14:45:33.778Z,100992.80
2022-11-06T14:56:00.662Z,101005.38
2022-11-06T15:06:43.508Z,101010.40
2022-11-06T15:16:49.503Z,101010.65
2022-11-06T15:26:54.628Z,101010.83
2022-11-06T15:37:18.999Z,101005.67
2022-11-06T15:47:30.701Z,101004.38
2022-11-06T15:57:32.417Z,101007.52
2022-11-06T16:07:33.775Z,101007.06
2022-11-06T16:17:40.836Z,101002.96
2022-11-06T16:27:44.384Z,101000.23
2022-11-06T16:37:49.735Z,101000.76
2022-11-06T16:48:07.353Z,101001.48
2022-11-06T16:58:16.654Z,101005.02
2022-11-06T17:08:20.321Z,101005.92
2022-11-06T17:18:26.843Z,101000.40
2022-11-06T17:28:32.654Z,100997.98
2022-11-06T17:38:35.776Z,100995.47
2022-11-06T17:48:37.147Z,100994.89
2022-11-06T17:58:38.670Z,100993.66
2022-11-06T18:08:40.214Z,100994.40
2022-11-06T18:18:44.383Z,100996.73
2022-11-06T18:28:45.859Z,101001.54
2022-11-06T18:38:47.120Z,100995.20
2022-11-06T18:48:52.179Z,100979.38
2022-11-06T18:58:54.448Z,100969.35
2022-11-06T19:08:56.084Z,100970.52
2022-11-06T19:29:06.966Z,100978.33
2022-11-06T19:39:08.760Z,100978.33
2022-11-06T19:49:11.891Z,100976.63
2022-11-06T19:59:13.714Z,100976.69
2022-11-06T20:09:15.258Z,100973.02
2022-11-06T20:19:18.015Z,100960.92
2022-11-06T20:29:19.446Z,100950.40
2022-11-06T20:39:21.050Z,100943.06
2022-11-06T20:49:22.522Z,100936.02
2022-11-06T20:59:24.143Z,100931.22
2022-11-06T21:09:25.880Z,100931.46
2022-11-06T21:19:28.059Z,100937.17
2022-11-06T21:29:29.431Z,100935.81
2022-11-06T21:39:35.892Z,100938.63
2022-11-06T21:49:38.285Z,100935.78
2022-11-06T21:59:41.772Z,100916.17
2022-11-06T22:09:43.312Z,100911.01
2022-11-06T22:19:44.987Z,100898.77
2022-11-06T22:29:47.321Z,100884.25
2022-11-06T22:39:48.698Z,100882.07
2022-11-06T22:49:49.983Z,100870.76
2022-11-06T22:59:51.304Z,100862.78
2022-11-06T23:09:52.847Z,100860.05
2022-11-06T23:19:55.334Z,100852.77
2022-11-06T23:30:00.127Z,100859.79
2022-11-06T23:40:01.704Z,100856.92
2022-11-06T23:50:04.639Z,100853.50
